Time;durP1;ratioP1;P1;durP2;ratioP2;P2;SDS_P1;SDS_P2;PMS_P1;PMS_P2;Temp;Humidity;BMP_temperature;BMP_pressure;BME280_temperature;BME280_humidity;BME280_pressure;Samples;Min_cycle;Max_cycle;Signal;HPM_P1;HPM_P2
2022/11/12 00:00:45;;;;;;;2.30;2.20;;;10.80;76.50;10.90;97986.00;;;;5033521;28;20304;-83
2022/11/12 00:03:14;;;;;;;2.30;2.10;;;10.80;76.60;10.90;97991.00;;;;5033315;28;20236;-84
2022/11/12 00:05:41;;;;;;;2.30;2.20;;;10.80;76.60;10.90;97991.00;;;;5033221;28;20263;-84
2022/11/12 00:08:08;;;;;;;2.40;2.20;;;10.80;76.70;10.90;97985.00;;;;5033135;28;20622;-84
2022/11/12 00:10:35;;;;;;;11.17;2.70;;;10.80;76.70;10.90;97989.00;;;;5033490;28;20228;-84
2022/11/12 00:13:03;;;;;;;3.90;2.80;;;10.80;76.70;10.90;97993.00;;;;5033437;28;20260;-84
2022/11/12 00:15:30;;;;;;;9.50;2.90;;;10.80;76.60;11.00;97997.00;;;;5039600;28;20263;-84
2022/11/12 00:17:57;;;;;;;8.47;2.70;;;10.80;76.60;11.00;98002.00;;;;5053395;28;20208;-84
2022/11/12 00:20:26;;;;;;;8.37;3.00;;;10.80;76.70;11.00;97998.00;;;;5050163;28;20339;-84
2022/11/12 00:22:53;;;;;;;20.13;3.30;;;10.90;76.70;10.90;97994.00;;;;5055284;28;20648;-84
2022/11/12 00:25:21;;;;;;;15.57;2.90;;;10.80;76.70;10.90;98005.00;;;;5042164;28;20308;-84
2022/11/12 00:27:48;;;;;;;15.53;3.23;;;10.80;76.60;10.90;97995.00;;;;5054159;28;20278;-84
2022/11/12 00:30:16;;;;;;;13.03;2.93;;;10.80;76.60;10.90;97998.00;;;;5049987;28;20236;-85
2022/11/12 00:32:44;;;;;;;13.73;2.80;;;10.80;76.60;10.90;97996.00;;;;5042618;28;20320;-84
2022/11/12 00:35:11;;;;;;;2.60;2.40;;;10.80;76.70;10.90;97997.00;;;;5045641;28;20232;-84
2022/11/12 00:37:40;;;;;;;8.27;2.97;;;10.80;76.70;10.90;97993.00;;;;5054207;22;20213;-86
2022/11/12 00:40:09;;;;;;;13.40;3.23;;;10.80;76.80;10.90;97985.00;;;;5021243;28;20278;-86
2022/11/12 00:42:36;;;;;;;2.33;2.17;;;10.80;76.90;10.90;97986.00;;;;5021534;28;20267;-86
2022/11/12 00:45:03;;;;;;;13.90;3.53;;;10.80;76.90;10.90;97988.00;;;;5024844;28;20307;-83
2022/11/12 00:47:31;;;;;;;10.50;3.17;;;10.80;77.60;10.90;97988.00;;;;5022109;28;20233;-84
2022/11/12 00:49:58;;;;;;;6.40;2.63;;;10.80;77.00;10.90;97994.00;;;;5024673;28;20237;-83
2022/11/12 00:52:25;;;;;;;2.30;2.20;;;10.80;77.00;10.90;97986.00;;;;5028160;28;20836;-83
2022/11/12 00:54:54;;;;;;;2.13;2.03;;;10.80;77.10;10.90;97982.00;;;;5027907;28;20654;-83
2022/11/12 00:57:21;;;;;;;2.73;2.53;;;10.80;77.00;10.90;97977.00;;;;5024530;28;20210;-83
2022/11/12 00:59:48;;;;;;;4.53;2.63;;;10.80;77.00;10.90;97975.00;;;;5024490;28;20225;-83
2022/11/12 01:02:15;;;;;;;11.63;2.80;;;10.80;77.00;10.90;97973.00;;;;5028403;28;20263;-83
2022/11/12 01:04:43;;;;;;;10.27;3.13;;;10.80;77.00;10.90;97968.00;;;;5023727;28;20309;-83
2022/11/12 01:07:10;;;;;;;9.30;2.87;;;10.80;77.00;10.90;97966.00;;;;5031396;28;20317;-83
2022/11/12 01:09:37;;;;;;;2.43;2.30;;;10.80;77.00;10.90;97967.00;;;;5028061;28;20258;-83
2022/11/12 01:12:06;;;;;;;3.77;2.20;;;10.80;77.10;10.90;97959.00;;;;5027277;28;20258;-83
2022/11/12 01:14:33;;;;;;;2.87;2.47;;;10.80;77.10;10.90;97966.00;;;;5024862;28;20222;-83
2022/11/12 01:17:00;;;;;;;2.23;2.13;;;10.80;77.00;10.90;97968.00;;;;5027128;28;20232;-83
2022/11/12 01:19:28;;;;;;;7.67;2.60;;;10.80;77.00;11.00;97964.00;;;;5024165;28;20239;-84
2022/11/12 01:21:55;;;;;;;3.57;2.43;;;10.80;77.10;11.00;97965.00;;;;5027986;28;20232;-85
2022/11/12 01:24:22;;;;;;;2.60;2.40;;;10.90;77.20;11.00;97969.00;;;;5028417;28;20264;-85
2022/11/12 01:26:49;;;;;;;8.43;2.63;;;10.90;77.20;11.00;97965.00;;;;5023451;28;20620;-84
2022/11/12 01:29:18;;;;;;;2.33;2.23;;;10.90;77.20;11.00;97960.00;;;;5024757;28;20245;-85
2022/11/12 01:31:45;;;;;;;7.30;2.60;;;10.90;77.30;11.00;97959.00;;;;5025681;28;20555;-84
2022/11/12 01:34:13;;;;;;;3.07;2.40;;;10.90;77.30;11.00;97955.00;;;;5023359;28;20253;-84
2022/11/12 01:36:41;;;;;;;2.87;2.43;;;10.90;77.30;11.00;97942.00;;;;5029416;28;20292;-85
2022/11/12 01:39:09;;;;;;;4.67;2.20;;;10.90;77.20;11.00;97946.00;;;;5025104;28;20268;-84
2022/11/12 01:41:40;;;;;;;2.27;2.17;;;10.90;77.20;11.10;97948.00;;;;5025076;28;20952;-84
2022/11/12 01:44:17;;;;;;;4.30;2.60;;;10.90;77.10;11.10;97936.00;;;;5023933;28;20682;-85
2022/11/12 01:47:02;;;;;;;5.80;2.53;;;11.00;77.30;11.10;97946.00;;;;5024100;28;20584;-85
2022/11/12 01:49:38;;;;;;;3.27;2.10;;;11.00;77.20;11.10;97942.00;;;;5026834;28;20210;-84
2022/11/12 01:52:17;;;;;;;3.17;2.53;;;11.00;77.00;11.10;97936.00;;;;5027645;28;20225;-84
2022/11/12 01:54:49;;;;;;;2.87;2.67;;;11.00;77.10;11.10;97929.00;;;;5024751;28;20225;-84
2022/11/12 01:57:22;;;;;;;2.30;2.20;;;11.00;77.00;11.10;97937.00;;;;5025489;28;20225;-85
2022/11/12 01:59:53;;;;;;;3.57;2.57;;;11.00;77.00;11.10;97930.00;;;;5023230;28;20561;-84
2022/11/12 02:02:22;;;;;;;2.40;2.17;;;11.00;77.00;11.10;97928.00;;;;5027213;28;20288;-84
2022/11/12 02:04:51;;;;;;;3.73;2.63;;;11.00;76.90;11.10;97934.00;;;;5023087;28;20251;-84
2022/11/12 02:07:23;;;;;;;5.03;2.43;;;11.00;77.00;11.10;97931.00;;;;5020820;28;20285;-84
2022/11/12 02:09:50;;;;;;;2.53;2.43;;;11.00;76.90;11.10;97932.00;;;;5023587;28;20227;-84
2022/11/12 02:14:59;;;;;;;3.53;2.40;;;11.00;77.00;11.20;97927.00;;;;5024084;28;20230;-84
2022/11/12 02:17:27;;;;;;;6.43;2.67;;;11.10;76.90;11.20;97927.00;;;;5023002;28;20237;-83
2022/11/12 02:19:58;;;;;;;6.17;2.77;;;11.10;76.90;11.20;97924.00;;;;5026204;28;20666;-84
2022/11/12 02:22:27;;;;;;;2.70;2.50;;;11.00;76.80;11.20;97920.00;;;;5022077;28;20669;-84
2022/11/12 02:24:55;;;;;;;2.63;2.30;;;11.10;76.90;11.20;97928.00;;;;5026215;28;20304;-84
2022/11/12 02:27:24;;;;;;;2.60;2.37;;;11.10;77.00;11.20;97920.00;;;;5022987;28;20237;-84
2022/11/12 02:29:51;;;;;;;3.07;2.50;;;11.10;77.00;11.20;97915.00;;;;5023069;28;20206;-84
2022/11/12 02:32:18;;;;;;;2.93;2.73;;;11.10;76.90;11.20;97914.00;;;;5026639;28;20681;-84
2022/11/12 02:34:46;;;;;;;5.00;2.70;;;11.10;77.00;11.20;97920.00;;;;5025801;28;20283;-84
2022/11/12 02:37:13;;;;;;;2.87;2.67;;;11.10;76.90;11.20;97928.00;;;;5027070;28;20219;-84
2022/11/12 02:39:41;;;;;;;3.30;2.30;;;11.10;77.00;11.20;97916.00;;;;5022249;28;20198;-84
2022/11/12 02:42:09;;;;;;;2.53;2.30;;;11.10;76.80;11.20;97923.00;;;;5026180;28;20292;-84
2022/11/12 02:44:36;;;;;;;3.33;3.03;;;11.10;76.90;11.20;97922.00;;;;5023256;28;20272;-84
2022/11/12 02:47:03;;;;;;;2.73;2.53;;;11.10;76.90;11.20;97905.00;;;;5025703;28;20708;-84
2022/11/12 02:49:31;;;;;;;6.90;2.80;;;11.10;76.80;11.20;97917.00;;;;5024109;28;20198;-84
2022/11/12 02:51:58;;;;;;;2.70;2.40;;;11.10;76.70;11.20;97925.00;;;;5025657;28;20197;-84
2022/11/12 02:54:25;;;;;;;5.43;2.70;;;11.10;76.70;11.20;97927.00;;;;5022486;28;20260;-84
2022/11/12 02:56:54;;;;;;;2.83;2.50;;;11.10;76.70;11.20;97928.00;;;;5023851;28;20255;-84
2022/11/12 02:59:21;;;;;;;3.70;2.70;;;11.10;76.70;11.20;97930.00;;;;5024922;28;20247;-84
2022/11/12 03:01:48;;;;;;;2.93;2.63;;;11.10;76.70;11.20;97932.00;;;;5026340;28;20263;-84
2022/11/12 03:04:15;;;;;;;10.23;2.43;;;11.10;76.70;11.20;97932.00;;;;5023548;28;20309;-84
2022/11/12 03:06:43;;;;;;;6.87;2.57;;;11.10;76.80;11.20;97938.00;;;;5024355;28;20631;-85
2022/11/12 03:09:12;;;;;;;5.17;2.70;;;11.10;76.70;11.20;97934.00;;;;5020319;28;20667;-84
2022/11/12 03:11:39;;;;;;;2.80;2.43;;;11.10;76.80;11.20;97938.00;;;;5023967;28;20289;-84
2022/11/12 03:14:08;;;;;;;4.27;2.40;;;11.10;76.70;11.20;97931.00;;;;5023618;28;20256;-84
2022/11/12 03:16:35;;;;;;;2.70;2.50;;;11.10;76.80;11.20;97936.00;;;;5021941;28;20267;-84
2022/11/12 03:19:02;;;;;;;2.70;2.50;;;11.10;76.80;11.20;97931.00;;;;5024488;28;20639;-84
2022/11/12 03:21:29;;;;;;;4.90;2.47;;;11.10;76.80;11.20;97935.00;;;;5021488;28;20240;-84
2022/11/12 03:23:57;;;;;;;2.30;2.20;;;11.10;76.80;11.20;97928.00;;;;5022969;28;20252;-84
2022/11/12 03:26:24;;;;;;;2.93;2.67;;;11.10;76.90;11.20;97923.00;;;;5024365;28;20237;-84
2022/11/12 03:28:51;;;;;;;2.67;2.47;;;11.10;76.90;11.20;97915.00;;;;5022776;28;20220;-84
2022/11/12 03:31:20;;;;;;;2.70;2.50;;;11.10;77.00;11.20;97912.00;;;;5025211;28;20596;-84
2022/11/12 03:33:47;;;;;;;2.43;2.23;;;11.10;77.00;11.20;97914.00;;;;5024285;28;20263;-84
2022/11/12 03:36:15;;;;;;;3.53;2.33;;;11.10;76.90;11.20;97910.00;;;;5022429;28;20252;-84
2022/11/12 03:38:42;;;;;;;2.30;2.20;;;11.10;76.90;11.20;97915.00;;;;5024332;28;20216;-84
2022/11/12 03:41:09;;;;;;;3.47;2.57;;;11.10;76.90;11.20;97917.00;;;;5025457;28;20712;-84
2022/11/12 03:43:36;;;;;;;5.87;2.67;;;11.10;76.90;11.20;97928.00;;;;5021792;28;20234;-84
2022/11/12 03:46:04;;;;;;;8.73;2.87;;;11.10;76.80;11.20;97930.00;;;;5021094;28;20375;-85
2022/11/12 03:48:32;;;;;;;12.60;3.13;;;11.10;76.70;11.20;97935.00;;;;5020790;28;20206;-84
2022/11/12 03:51:00;;;;;;;7.37;2.90;;;11.10;76.70;11.20;97936.00;;;;5024435;28;20205;-84
2022/11/12 03:53:28;;;;;;;4.67;2.60;;;11.10;76.60;11.20;97939.00;;;;5025396;28;20316;-84
2022/11/12 03:55:55;;;;;;;2.50;2.40;;;11.10;76.60;11.20;97938.00;;;;5024399;28;20225;-84
2022/11/12 03:58:22;;;;;;;2.43;2.33;;;11.10;76.60;11.20;97935.00;;;;5021273;28;20296;-84
2022/11/12 04:00:49;;;;;;;5.83;2.70;;;11.10;76.70;11.20;97934.00;;;;5025142;28;20299;-84
2022/11/12 04:03:17;;;;;;;7.23;2.50;;;11.10;76.70;11.20;97930.00;;;;5021874;28;20206;-84
2022/11/12 04:08:36;;;;;;;7.80;2.60;;;11.10;76.80;11.10;97930.00;;;;5016874;28;20228;-84
2022/11/12 04:11:07;;;;;;;2.40;2.07;;;11.00;76.80;11.10;97922.00;;;;5025444;28;20224;-84
2022/11/12 04:13:37;;;;;;;6.77;2.50;;;11.00;76.70;11.10;97927.00;;;;5024854;28;20217;-84
2022/11/12 04:21:50;;;;;;;4.07;1.90;;;11.00;76.70;11.00;97939.00;;;;5022852;28;20205;-84
2022/11/12 04:27:05;;;;;;;1.83;1.73;;;10.90;76.60;10.90;97932.00;;;;5025624;28;20247;-84
2022/11/12 04:32:18;;;;;;;2.00;1.90;;;10.90;76.60;10.90;97928.00;;;;5022060;28;20201;-84
2022/11/12 04:34:45;;;;;;;3.53;1.87;;;10.80;76.50;10.90;97931.00;;;;5020212;28;20252;-84
2022/11/12 04:37:14;;;;;;;1.97;1.83;;;10.80;76.40;10.90;97930.00;;;;5018204;28;20210;-84
2022/11/12 04:39:41;;;;;;;2.57;2.23;;;10.80;76.60;10.90;97933.00;;;;5025091;28;20296;-84
2022/11/12 04:45:01;;;;;;;3.90;2.20;;;10.80;76.70;10.80;97931.00;;;;5024629;28;20232;-84
2022/11/12 04:47:32;;;;;;;2.20;2.10;;;10.80;76.70;10.80;97937.00;;;;5021306;28;20247;-84
2022/11/12 04:50:01;;;;;;;6.83;2.27;;;10.80;76.80;10.80;97929.00;;;;5022876;28;20630;-84
2022/11/12 04:52:30;;;;;;;2.03;1.83;;;10.70;76.70;10.80;97931.00;;;;5020585;28;20230;-84
2022/11/12 04:54:58;;;;;;;9.03;3.03;;;10.70;76.70;10.80;97931.00;;;;5026793;28;20308;-84
2022/11/12 04:57:26;;;;;;;1.93;1.83;;;10.70;76.70;10.80;97937.00;;;;5023853;28;20226;-84
2022/11/12 04:59:53;;;;;;;2.20;2.00;;;10.70;76.70;10.80;97945.00;;;;5021485;28;20202;-84
2022/11/12 05:02:21;;;;;;;2.20;2.10;;;10.70;76.70;10.80;97946.00;;;;5023412;28;20268;-84
2022/11/12 05:04:48;;;;;;;2.40;2.20;;;10.70;76.70;10.80;97936.00;;;;5022529;28;20221;-84
2022/11/12 05:07:16;;;;;;;4.10;2.10;;;10.70;76.70;10.80;97940.00;;;;5019646;28;20207;-84
2022/11/12 05:09:45;;;;;;;2.63;2.10;;;10.70;76.70;10.80;97935.00;;;;5021459;28;20671;-84
2022/11/12 05:12:12;;;;;;;2.00;1.90;;;10.70;76.90;10.80;97935.00;;;;5024146;28;20210;-84
2022/11/12 05:14:40;;;;;;;6.80;2.63;;;10.70;76.80;10.80;97932.00;;;;5020663;28;20741;-84
2022/11/12 05:17:07;;;;;;;1.97;1.87;;;10.70;77.00;10.80;97933.00;;;;5021295;28;20214;-84
2022/11/12 05:19:35;;;;;;;2.67;2.20;;;10.70;77.00;10.80;97928.00;;;;5024972;28;20225;-84
2022/11/12 05:22:05;;;;;;;3.00;2.23;;;10.70;77.00;10.80;97932.00;;;;5020597;28;20202;-84
2022/11/12 05:24:38;;;;;;;2.63;2.27;;;10.70;76.90;10.80;97933.00;;;;5020541;28;20310;-84
2022/11/12 05:27:11;;;;;;;2.20;1.97;;;10.70;76.90;10.80;97931.00;;;;5023165;28;20676;-84
2022/11/12 05:29:38;;;;;;;7.60;2.60;;;10.70;77.00;10.80;97920.00;;;;5023254;28;20244;-84
2022/11/12 05:32:06;;;;;;;2.37;2.27;;;10.70;77.00;10.80;97921.00;;;;5020451;28;20205;-84
2022/11/12 05:34:34;;;;;;;2.40;2.30;;;10.70;77.00;10.80;97925.00;;;;5026363;28;20665;-84
2022/11/12 05:37:04;;;;;;;2.23;2.10;;;10.70;77.80;10.80;97921.00;;;;5026166;28;20217;-84
2022/11/12 05:39:32;;;;;;;3.90;2.63;;;10.70;76.90;10.70;97918.00;;;;5021757;28;20580;-84
2022/11/12 05:41:59;;;;;;;2.70;2.50;;;10.70;76.80;10.70;97924.00;;;;5026792;28;20244;-84
2022/11/12 05:44:28;;;;;;;2.10;2.00;;;10.70;76.70;10.70;97925.00;;;;5023776;28;20289;-84
2022/11/12 05:46:55;;;;;;;2.40;2.30;;;10.70;76.70;10.70;97930.00;;;;5024316;28;20665;-84
2022/11/12 05:49:23;;;;;;;4.77;2.00;;;10.70;76.70;10.70;97930.00;;;;5021144;28;20229;-84
2022/11/12 05:51:50;;;;;;;26.67;2.40;;;10.70;76.70;10.70;97938.00;;;;5022454;28;20244;-84
2022/11/12 05:54:18;;;;;;;7.40;2.60;;;10.70;76.80;10.70;97935.00;;;;5031630;28;20311;-84
2022/11/12 05:56:45;;;;;;;4.67;2.20;;;10.70;76.70;10.70;97942.00;;;;5024788;28;20644;-84
2022/11/12 05:59:14;;;;;;;3.47;1.70;;;10.70;76.50;10.70;97942.00;;;;5020114;28;20652;-84
2022/11/12 06:01:43;;;;;;;1.90;1.80;;;10.70;76.50;10.70;97949.00;;;;5027385;28;20209;-84
2022/11/12 06:04:12;;;;;;;4.07;2.03;;;10.70;76.50;10.70;97957.00;;;;5019273;28;20594;-84
2022/11/12 06:06:40;;;;;;;1.67;1.57;;;10.70;76.50;10.70;97950.00;;;;5027881;28;20205;-84
2022/11/12 06:09:09;;;;;;;2.10;2.00;;;10.70;76.20;10.70;97960.00;;;;5021281;28;20202;-84
2022/11/12 06:11:37;;;;;;;2.60;1.90;;;10.60;76.10;10.60;97966.00;;;;5027380;28;20232;-84
2022/11/12 06:14:05;;;;;;;5.03;1.93;;;10.60;76.00;10.60;97964.00;;;;5026826;28;20312;-84
2022/11/12 06:16:33;;;;;;;2.10;1.90;;;10.60;76.00;10.60;97961.00;;;;5024659;28;20641;-84
2022/11/12 06:19:01;;;;;;;1.80;1.70;;;10.60;76.00;10.60;97961.00;;;;5025825;28;20602;-84
2022/11/12 06:21:29;;;;;;;3.83;1.83;;;10.60;76.10;10.60;97955.00;;;;5023803;28;20255;-84
2022/11/12 06:23:59;;;;;;;2.10;2.00;;;10.60;76.10;10.60;97962.00;;;;5027119;28;20947;-84
2022/11/12 06:26:28;;;;;;;1.87;1.70;;;10.60;76.10;10.60;97967.00;;;;5026859;28;20255;-85
2022/11/12 06:28:56;;;;;;;3.93;1.87;;;10.60;75.90;10.60;97964.00;;;;5029131;28;20240;-84
2022/11/12 06:31:24;;;;;;;2.17;1.97;;;10.50;75.80;10.60;97966.00;;;;5020069;28;20229;-84
2022/11/12 06:33:52;;;;;;;4.20;1.70;;;10.50;75.80;10.60;97970.00;;;;5026651;28;20775;-84
2022/11/12 06:36:21;;;;;;;1.77;1.67;;;10.50;75.80;10.60;97966.00;;;;5021075;28;20310;-84
2022/11/12 06:38:48;;;;;;;2.97;1.83;;;10.50;75.90;10.50;97960.00;;;;5020041;28;20233;-84
2022/11/12 06:41:16;;;;;;;1.63;1.53;;;10.50;75.90;10.60;97960.00;;;;5023365;28;20237;-84
2022/11/12 06:43:43;;;;;;;5.40;1.80;;;10.50;75.80;10.50;97962.00;;;;5022986;28;20210;-84
2022/11/12 06:46:14;;;;;;;1.67;1.57;;;10.50;75.80;10.50;97970.00;;;;5026010;28;20298;-84
2022/11/12 06:48:42;;;;;;;5.27;2.10;;;10.50;75.80;10.50;97961.00;;;;5018479;28;20198;-84
2022/11/12 06:51:15;;;;;;;3.27;1.80;;;10.50;75.80;10.50;97969.00;;;;5018558;28;20206;-84
2022/11/12 06:53:44;;;;;;;2.43;2.27;;;10.50;75.70;10.50;97973.00;;;;5027000;28;20705;-84
2022/11/12 06:56:12;;;;;;;2.00;1.90;;;10.50;75.80;10.50;97976.00;;;;5021842;28;20202;-84
2022/11/12 06:58:39;;;;;;;10.40;2.53;;;10.40;75.60;10.50;97970.00;;;;5029881;28;20301;-84
2022/11/12 07:01:11;;;;;;;3.50;2.00;;;10.40;75.60;10.50;97964.00;;;;5024023;28;20252;-84
2022/11/12 07:03:39;;;;;;;2.20;2.10;;;10.40;75.70;10.50;97975.00;;;;5027063;28;20280;-84
2022/11/12 07:06:10;;;;;;;4.63;2.50;;;10.40;75.70;10.50;97979.00;;;;5018468;28;20225;-84
2022/11/12 07:08:38;;;;;;;2.07;1.97;;;10.40;75.80;10.40;97975.00;;;;5028026;28;20196;-84
2022/11/12 07:11:07;;;;;;;3.10;2.00;;;10.40;75.80;10.40;97970.00;;;;5022930;28;20241;-84
2022/11/12 07:13:36;;;;;;;2.40;2.00;;;10.40;75.90;10.50;97970.00;;;;5030770;28;20328;-84
2022/11/12 07:16:07;;;;;;;1.77;1.63;;;10.40;75.90;10.40;97975.00;;;;5021675;28;20289;-84
2022/11/12 07:18:35;;;;;;;2.13;1.93;;;10.40;76.00;10.50;97982.00;;;;5025581;28;20248;-84
2022/11/12 07:21:06;;;;;;;1.97;1.87;;;10.40;75.90;10.40;97979.00;;;;5021476;28;20666;-84
2022/11/12 07:23:36;;;;;;;2.03;1.93;;;10.40;76.00;10.50;97978.00;;;;5017238;28;20201;-84
2022/11/12 07:26:07;;;;;;;2.33;2.17;;;10.40;76.10;10.50;97982.00;;;;5014570;28;20288;-84
2022/11/12 07:28:35;;;;;;;5.20;2.17;;;10.40;76.00;10.50;97979.00;;;;5017594;28;20194;-84
2022/11/12 07:31:05;;;;;;;2.80;2.13;;;10.40;75.90;10.50;97979.00;;;;5025472;28;20209;-84
2022/11/12 07:33:34;;;;;;;2.00;1.83;;;10.40;76.00;10.50;97991.00;;;;5023345;28;20745;-84
2022/11/12 07:36:04;;;;;;;2.00;1.90;;;10.40;76.00;10.50;97983.00;;;;5025844;28;20297;-84
2022/11/12 07:38:34;;;;;;;2.43;2.23;;;10.40;76.10;10.50;97982.00;;;;5021606;28;20241;-84
2022/11/12 07:41:04;;;;;;;2.23;2.13;;;10.40;76.10;10.50;97982.00;;;;5072809;23;20250;-84
2022/11/12 07:43:34;;;;;;;7.13;2.60;;;10.40;76.10;10.60;97985.00;;;;5080471;28;20204;-84
2022/11/12 07:46:05;;;;;;;6.83;2.57;;;10.40;76.10;10.60;97980.00;;;;5059841;28;20223;-84
2022/11/12 07:48:33;;;;;;;1.90;1.80;;;10.50;75.90;10.60;97978.00;;;;5059375;28;20200;-85
2022/11/12 07:51:02;;;;;;;6.60;2.40;;;10.50;75.80;10.60;97963.00;;;;5054051;28;20232;-85
2022/11/12 07:53:30;;;;;;;2.83;2.20;;;10.50;75.70;10.60;97977.00;;;;5053783;28;20220;-84
2022/11/12 07:55:59;;;;;;;2.73;2.53;;;10.50;75.80;10.60;97977.00;;;;5054302;28;20278;-85
2022/11/12 07:58:30;;;;;;;3.67;1.97;;;10.50;75.80;10.70;97976.00;;;;5053867;28;20227;-85
2022/11/12 08:01:07;;;;;;;3.90;2.20;;;10.50;75.80;10.70;97976.00;;;;5054776;28;20272;-85
2022/11/12 08:03:34;;;;;;;4.47;2.30;;;10.50;76.00;10.70;97977.00;;;;5054365;28;20193;-85
2022/11/12 08:06:02;;;;;;;2.60;2.00;;;10.50;76.00;10.70;97975.00;;;;5053990;28;20251;-84
2022/11/12 08:08:29;;;;;;;2.17;2.07;;;10.50;76.10;10.70;97973.00;;;;5053672;28;20254;-85
2022/11/12 08:10:57;;;;;;;3.97;2.43;;;10.60;76.10;10.70;97973.00;;;;5054677;28;20631;-84
2022/11/12 08:13:25;;;;;;;2.07;1.97;;;10.60;75.90;10.70;97980.00;;;;5054239;28;20284;-85
2022/11/12 08:15:52;;;;;;;5.20;2.67;;;10.60;75.80;10.70;97975.00;;;;5054138;28;20307;-85
2022/11/12 08:18:21;;;;;;;2.43;2.23;;;10.60;75.90;10.70;97966.00;;;;5054697;28;20205;-84
2022/11/12 08:20:48;;;;;;;2.90;2.33;;;10.60;75.80;10.70;97973.00;;;;5054551;28;20287;-85
2022/11/12 08:23:15;;;;;;;3.00;2.40;;;10.60;75.60;10.70;97977.00;;;;5054161;28;20295;-85
2022/11/12 08:25:43;;;;;;;2.60;2.40;;;10.60;75.40;10.60;97980.00;;;;5054294;28;20251;-85
2022/11/12 08:28:11;;;;;;;3.00;2.70;;;10.60;75.30;10.60;97985.00;;;;5054705;28;20587;-84
2022/11/12 08:30:38;;;;;;;2.80;2.60;;;10.60;75.50;10.60;97985.00;;;;5054378;28;20216;-85
2022/11/12 08:33:06;;;;;;;2.27;2.17;;;10.60;75.70;10.70;97993.00;;;;5054617;28;20645;-85
2022/11/12 08:35:38;;;;;;;3.17;2.97;;;10.60;75.80;10.70;97998.00;;;;5053855;28;20225;-85
2022/11/12 08:38:09;;;;;;;2.80;2.60;;;10.60;75.90;10.70;98000.00;;;;5054193;28;20191;-85
2022/11/12 08:40:37;;;;;;;4.30;2.97;;;10.60;75.90;10.70;97989.00;;;;5054196;28;20270;-85
2022/11/12 08:43:08;;;;;;;5.37;2.60;;;10.60;75.90;10.70;97993.00;;;;5054559;28;20197;-85
2022/11/12 08:45:37;;;;;;;2.70;2.50;;;10.60;75.70;10.70;97999.00;;;;5054336;28;20217;-85
2022/11/12 08:48:08;;;;;;;2.70;2.50;;;10.60;75.60;10.70;97996.00;;;;5054608;28;20279;-85
2022/11/12 08:50:37;;;;;;;2.53;2.30;;;10.60;75.60;10.70;97999.00;;;;5054326;28;20219;-85
2022/11/12 08:53:08;;;;;;;2.20;2.10;;;10.60;75.60;10.70;98006.00;;;;5054258;28;20231;-84
2022/11/12 08:55:36;;;;;;;5.23;2.47;;;10.60;75.50;10.80;98000.00;;;;5054541;28;20260;-84
2022/11/12 08:58:04;;;;;;;2.47;2.37;;;10.60;75.40;10.80;97993.00;;;;5053459;28;20229;-84
2022/11/12 09:00:34;;;;;;;2.77;2.50;;;10.70;75.50;10.80;97997.00;;;;5053046;28;20288;-85
2022/11/12 09:03:02;;;;;;;2.93;2.73;;;10.70;75.60;10.80;97994.00;;;;5053604;28;20235;-85
2022/11/12 09:05:33;;;;;;;3.07;2.87;;;10.70;75.70;10.80;98000.00;;;;5053161;28;20264;-85
2022/11/12 09:08:05;;;;;;;2.50;2.30;;;10.70;75.50;10.80;98000.00;;;;5034433;28;20193;-85
2022/11/12 09:10:33;;;;;;;2.87;2.73;;;10.70;75.40;10.80;98000.00;;;;5037187;28;20182;-84
2022/11/12 09:13:01;;;;;;;3.07;2.77;;;10.70;75.50;10.80;98005.00;;;;5037408;28;20551;-85
2022/11/12 09:15:30;;;;;;;2.67;2.37;;;10.70;75.50;10.80;98009.00;;;;5037114;28;20267;-85
2022/11/12 09:17:58;;;;;;;2.70;2.50;;;10.70;75.40;10.80;98015.00;;;;5037706;28;20201;-85
2022/11/12 09:20:28;;;;;;;2.77;2.43;;;10.70;75.60;10.80;98012.00;;;;5037554;28;20228;-85
2022/11/12 09:23:02;;;;;;;2.80;2.60;;;10.70;75.60;10.80;98025.00;;;;5037054;28;20193;-85
2022/11/12 09:25:30;;;;;;;3.97;2.53;;;10.70;76.40;10.90;98025.00;;;;5036628;28;20311;-85
2022/11/12 09:27:57;;;;;;;3.30;2.53;;;10.70;75.70;10.90;98017.00;;;;5037196;28;20197;-85
2022/11/12 09:30:25;;;;;;;2.17;1.97;;;10.70;75.70;10.90;98017.00;;;;5037100;28;20604;-85
2022/11/12 09:32:58;;;;;;;2.40;2.30;;;10.70;75.60;10.90;98024.00;;;;5036895;28;20232;-85
2022/11/12 09:35:25;;;;;;;2.50;2.30;;;10.80;75.80;10.90;98021.00;;;;5036337;28;20233;-85
2022/11/12 09:37:52;;;;;;;3.43;2.47;;;10.80;75.70;10.90;98025.00;;;;5036207;28;20708;-85
2022/11/12 09:40:22;;;;;;;2.80;2.30;;;10.80;75.70;10.90;98026.00;;;;5036561;28;20300;-85
2022/11/12 09:42:53;;;;;;;2.53;1.90;;;10.80;75.70;10.90;98025.00;;;;5036529;28;20273;-85
2022/11/12 09:45:28;;;;;;;8.00;2.57;;;10.80;75.70;10.90;98025.00;;;;5036129;28;20285;-85
2022/11/12 09:48:02;;;;;;;3.87;2.43;;;10.80;75.70;10.90;98022.00;;;;5036289;28;20177;-85
2022/11/12 09:50:34;;;;;;;2.63;2.40;;;10.80;75.60;10.90;98018.00;;;;5036949;28;20268;-85
2022/11/12 09:53:12;;;;;;;4.33;2.40;;;10.80;75.60;11.00;98017.00;;;;5035994;28;20221;-85
2022/11/12 09:55:45;;;;;;;2.40;2.30;;;10.80;75.60;10.90;98008.00;;;;5036017;28;20723;-85
2022/11/12 09:58:13;;;;;;;2.20;2.10;;;10.80;75.70;11.00;98004.00;;;;5036090;28;20255;-85
2022/11/12 10:00:52;;;;;;;2.30;2.10;;;10.80;75.90;11.00;98005.00;;;;5036020;28;20284;-85
2022/11/12 10:03:35;;;;;;;2.27;2.17;;;10.80;76.00;11.00;98001.00;;;;5036325;28;20273;-85
2022/11/12 10:06:12;;;;;;;2.70;2.50;;;10.80;75.80;11.10;98009.00;;;;5036151;28;20292;-85
2022/11/12 10:08:48;;;;;;;2.97;2.70;;;10.90;75.90;11.10;98010.00;;;;5036034;28;20235;-85
2022/11/12 10:16:41;;;;;;;3.03;2.73;;;10.90;75.80;11.20;98003.00;;;;5035549;28;20781;-85
2022/11/12 10:17:54;;;;;;;3.90;2.30;;;11.00;75.90;11.20;98005.00;;;;5035141;28;20276;-85
2022/11/12 10:20:28;;;;;;;3.13;2.43;;;11.00;75.90;11.10;97992.00;;;;5035098;28;20190;-84
2022/11/12 10:23:17;;;;;;;3.43;3.13;;;11.00;75.80;11.20;97988.00;;;;5036224;28;20216;-85
2022/11/12 10:25:48;;;;;;;14.17;2.77;;;11.00;75.90;11.20;97985.00;;;;5035543;28;20275;-85
2022/11/12 10:28:28;;;;;;;3.93;2.80;;;11.00;75.80;11.20;97986.00;;;;5035293;28;20208;-85
2022/11/12 10:31:02;;;;;;;4.87;3.20;;;11.00;75.50;11.20;97978.00;;;;5035521;28;20248;-85
2022/11/12 10:33:31;;;;;;;3.73;3.30;;;11.00;75.60;11.20;97974.00;;;;5035489;28;20221;-85
2022/11/12 10:36:18;;;;;;;3.17;2.90;;;11.10;75.60;11.20;97979.00;;;;5035473;28;20311;-85
2022/11/12 10:38:49;;;;;;;3.43;3.23;;;11.10;76.40;11.30;97977.00;;;;5035303;28;20209;-85
2022/11/12 10:41:24;;;;;;;4.30;4.00;;;11.10;75.70;11.30;97971.00;;;;5035139;28;20259;-85
2022/11/12 10:43:59;;;;;;;3.87;3.57;;;11.10;75.80;11.30;97977.00;;;;5034721;28;20193;-85
2022/11/12 10:46:30;;;;;;;4.30;4.00;;;11.10;76.00;11.40;97977.00;;;;5034936;28;20181;-85
2022/11/12 10:49:02;;;;;;;5.27;4.87;;;11.10;76.10;11.40;97972.00;;;;5042856;28;20250;-85
2022/11/12 10:51:34;;;;;;;5.70;5.03;;;11.20;76.20;11.40;97972.00;;;;5055157;28;20196;-85
2022/11/12 10:54:22;;;;;;;5.47;4.97;;;11.20;76.00;11.50;97970.00;;;;5054376;28;20243;-85
2022/11/12 10:56:49;;;;;;;7.67;6.97;;;11.20;75.90;11.50;97971.00;;;;5054862;28;20187;-85
2022/11/12 10:59:20;;;;;;;7.27;6.57;;;11.30;76.00;11.60;97953.00;;;;5054352;28;20284;-85
2022/11/12 11:01:56;;;;;;;8.60;7.40;;;11.30;76.10;11.60;97956.00;;;;5054452;28;20250;-85
2022/11/12 11:04:31;;;;;;;8.03;7.27;;;11.30;76.30;11.70;97952.00;;;;5054908;28;20278;-85
2022/11/12 11:07:05;;;;;;;8.07;7.27;;;11.40;76.30;11.70;97951.00;;;;5054466;28;20283;-85
2022/11/12 11:09:34;;;;;;;8.90;7.97;;;11.40;76.20;11.70;97948.00;;;;5054759;28;20249;-85
2022/11/12 11:12:01;;;;;;;8.73;7.37;;;11.40;76.20;11.70;97955.00;;;;5034585;28;20228;-85
2022/11/12 11:14:37;;;;;;;8.13;7.33;;;11.50;76.20;11.80;97946.00;;;;5034547;28;20671;-85
2022/11/12 11:17:08;;;;;;;8.10;7.20;;;11.50;76.40;11.80;97944.00;;;;5034373;28;20192;-85
2022/11/12 11:19:41;;;;;;;9.03;8.10;;;11.50;76.30;11.90;97943.00;;;;5034322;28;20213;-85
2022/11/12 11:22:30;;;;;;;9.90;8.27;;;11.60;76.30;11.90;97945.00;;;;5034668;28;20201;-85
2022/11/12 11:25:26;;;;;;;9.87;8.13;;;11.60;76.00;11.90;97955.00;;;;5034112;28;20312;-85
2022/11/12 11:28:22;;;;;;;9.07;8.07;;;11.70;76.00;11.90;97947.00;;;;5034253;28;20190;-85